Diamond City, Arkansas
Current Conditions -  °F | °C
As of 1:35 AM on Wednesday 26 Nov 2014 (Local Time) from KBBG Reporting Station
Broken Clouds Broken Clouds  
Wind Chill: 29°   Ceiling: 11000
Heat Index: 36°   Visibility: 10mi
Dew Point: 23°   Wind: 9mph
Humidity: 60%   Direction: 150°SSE
Pressure: 30.04"   Gusts: NA
Location:  36.46°N, 92.92°W
Report Text: KBBG 260735Z AUTO 15008KT 10SM BKN110 02/M05 A3004 RMK AO2
Loading
Personal Weather Stations






























Interactive Weather Map New forecast layout! Learn more

10-Day Weather Forecast

Advertisements
Track Severe Weather on mobile